Myrtle Beach, South Carolina
Current Conditions -  °F | °C
As of 12:50 PM on Monday 24 Nov 2014 (Local Time) from KMYR Reporting Station
Haze Haze  
Wind Chill: 22°   Ceiling: 600
Heat Index: 22°   Visibility: 3mi
Dew Point: 20°   Wind: 13mph
Humidity: 88%   Direction: 190°S
Pressure: 29.86"   Gusts: NA
Location:  33.69°N, 78.88°W
Report Text: KMYR 241750Z 19011KT 3SM BR BKN006 OVC020 22/20 A2986
Loading
Personal Weather Stations






























Interactive Weather Map New forecast layout! Learn more

10-Day Weather Forecast

Advertisements
Track Severe Weather on mobile